Impacts METAR Board
IDs:

KPDX - Portland Intl Arpt, OR, US

Updated at: 1100 UTC 09 Jul 2020
Potential Impact None Slight Moderate High
Time 08/23Z 09/00Z 09/01Z 09/02Z 09/03Z 09/04Z 09/05Z 09/06Z 09/07Z 09/08Z 09/09Z 09/10Z 09/11Z
Temp73 74 74 74 72 69 67 65 62 61 60 61 60
Dewpt51 50 50 50 50 52 52 52 52 52 52 53 53
Altim30.06 30.04 30.02 30.01 30.01 30.01 30.02 30.02 30.02 30.01 30.02 30.02 30.01
VIS10 10 10 10 10 10 10 10 10 10 10 10 10
CIG-- -- -- -- -- -- -- -- -- -- -- 43 44
CoverSCTFEWFEWFEWFEWFEWFEWCLRFEWCLRSCTBKNBKN
FltCatVFRVFRVFRVFRVFRVFRVFRVFRVFRVFRVFRVFRVFR
WX--------------------------
WDir3203003503303503403403303203003200360
WSpd7 10 4 4 6 4 4 4 6 4 5 0 5
WGst-- -- -- -- -- -- -- -- -- -- -- -- --
Raw hourly METARs
KPDX 082253Z 32007KT 10SM SCT042 SCT250 23/11 A3006 RMK AO2 SLP178 T02280106
KPDX 082353Z 30010KT 10SM FEW042 FEW250 23/10 A3004 RMK AO2 SLP173 T02330100 10233 20178 57014
KPDX 090053Z 35004KT 10SM FEW040 FEW250 23/10 A3002 RMK AO2 SLP166 T02330100
KPDX 090153Z 33004KT 10SM FEW040 FEW250 23/10 A3001 RMK AO2 SLP163 T02330100
KPDX 090253Z 35006KT 10SM FEW040 FEW250 22/10 A3001 RMK AO2 SLP161 T02220100 56011
KPDX 090353Z 34004KT 10SM FEW040 FEW250 21/11 A3001 RMK AO2 SLP162 T02060111
KPDX 090453Z 34004KT 10SM FEW250 19/11 A3002 RMK AO2 SLP164 T01940111
KPDX 090553Z 33004KT 10SM CLR 18/11 A3002 RMK AO2 SLP165 T01830111 10233 20178 53003
KPDX 090653Z 32006KT 10SM FEW050 17/11 A3002 RMK AO2 SLP165 T01670111
KPDX 090753Z 30004KT 10SM CLR 16/11 A3001 RMK AO2 SLP162 T01610111 402330150
KPDX 090853Z 32005KT 10SM SCT045 16/11 A3002 RMK AO2 SLP164 T01560111 55001
KPDX 090953Z 00000KT 10SM BKN043 16/12 A3002 RMK AO2 SLP163 T01610117
KPDX 091053Z 36005KT 10SM BKN044 16/12 A3001 RMK AO2 SLP163 T01560117



Page loaded:  11:58 UTC  |   04:58 AM Pacific  |   05:58 AM Mountain  |   06:58 AM Central  |   07:58 AM Eastern

 

ADVISORIES

FORECASTS

FORECASTS

OBSERVATIONS

USER TOOLS

ABOUT US